createdAt,value
2023-05-15T00:02:02.045Z,41.17
2023-05-15T00:04:29.184Z,34.45
2023-05-15T00:06:56.298Z,40.17
2023-05-15T00:09:23.403Z,42.65
2023-05-15T00:11:51.196Z,36.58
2023-05-15T00:14:18.301Z,36.35
2023-05-15T00:16:45.428Z,36.95
2023-05-15T00:19:12.599Z,33.55
2023-05-15T00:21:39.862Z,44.25
2023-05-15T00:24:07.039Z,35.53
2023-05-15T00:26:34.256Z,29.63
2023-05-15T00:29:01.446Z,33.83
2023-05-15T00:31:28.551Z,30.08
2023-05-15T00:33:55.672Z,34.47
2023-05-15T00:36:24.234Z,33.05
2023-05-15T00:38:51.518Z,43.10
2023-05-15T00:41:19.373Z,36.80
2023-05-15T00:43:46.847Z,38.13
2023-05-15T00:46:14.335Z,34.55
2023-05-15T00:48:42.600Z,73.38
2023-05-15T00:51:10.536Z,33.95
2023-05-15T00:53:38.564Z,34.85
2023-05-15T00:56:06.825Z,30.48
2023-05-15T00:58:34.574Z,35.55
2023-05-15T01:01:01.719Z,38.28
2023-05-15T01:03:29.311Z,36.85
2023-05-15T01:05:56.455Z,37.20
2023-05-15T01:08:39.270Z,49.22
2023-05-15T01:11:08.080Z,32.30
2023-05-15T01:13:35.224Z,38.58
2023-05-15T01:16:02.416Z,36.58
2023-05-15T01:18:32.470Z,29.95
2023-05-15T01:21:03.019Z,39.17
2023-05-15T01:23:33.107Z,38.50
2023-05-15T01:26:09.368Z,34.63
2023-05-15T01:28:40.602Z,35.45
2023-05-15T01:31:11.475Z,36.47
2023-05-15T01:33:41.286Z,46.67
2023-05-15T01:36:22.524Z,40.15
2023-05-15T01:38:55.739Z,36.33
2023-05-15T01:41:28.649Z,33.92
2023-05-15T01:44:05.606Z,34.45
2023-05-15T01:46:35.510Z,33.47
2023-05-15T01:49:03.884Z,41.05
2023-05-15T01:51:31.998Z,35.65
2023-05-15T01:54:00.214Z,35.10
2023-05-15T01:56:27.876Z,34.10
2023-05-15T01:58:55.888Z,55.65
2023-05-15T02:01:23.546Z,37.85
2023-05-15T02:03:50.841Z,40.80
2023-05-15T02:06:18.092Z,37.70
2023-05-15T02:08:45.720Z,43.88
2023-05-15T02:11:13.807Z,36.42
2023-05-15T02:13:41.647Z,33.63
2023-05-15T02:16:08.882Z,64.10
2023-05-15T02:18:37.484Z,33.90
2023-05-15T02:21:04.684Z,49.83
2023-05-15T02:23:31.769Z,36.05
2023-05-15T02:26:01.982Z,33.45
2023-05-15T02:28:36.626Z,34.50
2023-05-15T02:31:10.903Z,40.78
2023-05-15T02:33:56.496Z,43.92
2023-05-15T02:36:26.133Z,31.95
2023-05-15T02:38:53.978Z,39.38
2023-05-15T02:41:22.512Z,43.50
2023-05-15T02:43:50.836Z,38.35
2023-05-15T02:46:18.580Z,32.85
2023-05-15T02:48:46.683Z,29.33
2023-05-15T02:51:14.359Z,40.33
2023-05-15T02:53:42.011Z,33.35
2023-05-15T02:56:09.906Z,41.55
2023-05-15T02:58:37.183Z,48.40
2023-05-15T03:01:04.582Z,39.78
2023-05-15T03:03:31.869Z,34.85
2023-05-15T03:06:00.891Z,37.22
2023-05-15T03:08:28.035Z,40.97
2023-05-15T03:10:55.312Z,38.50
2023-05-15T03:13:22.419Z,36.75
2023-05-15T03:15:49.500Z,35.47
2023-05-15T03:18:18.940Z,42.30
2023-05-15T03:20:46.298Z,62.67
2023-05-15T03:23:13.399Z,35.42
2023-05-15T03:25:40.466Z,42.20
2023-05-15T03:28:07.566Z,34.65
2023-05-15T03:30:34.656Z,32.92
2023-05-15T03:33:03.866Z,29.88
2023-05-15T03:35:32.378Z,33.70
2023-05-15T03:37:59.586Z,33.00
2023-05-15T03:40:26.741Z,29.48
2023-05-15T03:42:53.931Z,35.15
2023-05-15T03:45:21.278Z,29.70
2023-05-15T03:47:48.661Z,27.88
2023-05-15T03:50:16.131Z,35.10
2023-05-15T03:52:43.340Z,33.65
2023-05-15T03:55:10.585Z,34.38
2023-05-15T03:57:37.766Z,31.40
2023-05-15T04:00:10.139Z,29.30
2023-05-15T04:02:37.894Z,31.90
2023-05-15T04:05:05.664Z,32.55
2023-05-15T04:07:34.356Z,30.30
2023-05-15T04:10:01.896Z,31.08
2023-05-15T04:12:29.752Z,30.95
2023-05-15T04:15:00.866Z,31.45
2023-05-15T04:17:27.975Z,33.30
2023-05-15T04:19:55.065Z,33.97
2023-05-15T04:22:22.160Z,26.13
2023-05-15T04:24:49.242Z,27.95
2023-05-15T04:27:16.266Z,26.15
2023-05-15T04:29:43.310Z,30.38
2023-05-15T04:32:10.593Z,26.48
2023-05-15T04:34:37.788Z,26.60
2023-05-15T04:37:05.027Z,28.95
2023-05-15T04:39:32.116Z,28.67
2023-05-15T04:41:59.126Z,28.27
2023-05-15T04:44:26.573Z,29.67
2023-05-15T04:46:53.648Z,25.65
2023-05-15T04:49:20.755Z,28.58
2023-05-15T04:51:47.915Z,24.75
2023-05-15T04:54:15.001Z,25.02
2023-05-15T04:56:42.043Z,19.13
2023-05-15T04:59:10.911Z,26.13
2023-05-15T05:01:38.097Z,27.88
2023-05-15T05:04:05.342Z,24.58
2023-05-15T05:06:32.392Z,26.70
2023-05-15T05:08:59.523Z,26.02
2023-05-15T05:11:26.626Z,22.83
2023-05-15T05:13:53.668Z,25.83
2023-05-15T05:16:20.968Z,21.40
2023-05-15T05:18:48.141Z,23.15
2023-05-15T05:21:15.347Z,20.13
2023-05-15T05:23:42.442Z,21.10
2023-05-15T05:26:09.612Z,20.13
2023-05-15T05:28:36.694Z,22.95
2023-05-15T05:31:03.827Z,23.58
2023-05-15T05:33:30.958Z,18.80
2023-05-15T05:35:58.018Z,18.88
2023-05-15T05:38:26.466Z,19.13
2023-05-15T05:40:53.634Z,20.48
2023-05-15T05:43:20.879Z,23.23
2023-05-15T05:45:48.452Z,16.95
2023-05-15T05:48:15.601Z,21.73
2023-05-15T05:50:42.733Z,19.73
2023-05-15T05:53:09.998Z,19.48
2023-05-15T05:55:37.243Z,17.17
2023-05-15T05:58:08.569Z,18.17
2023-05-15T06:00:41.702Z,16.42
2023-05-15T06:03:09.214Z,18.13
2023-05-15T06:05:36.335Z,18.15
2023-05-15T06:08:04.314Z,19.77
2023-05-15T06:10:31.399Z,19.55
2023-05-15T06:12:58.495Z,15.20
2023-05-15T06:15:26.347Z,13.75
2023-05-15T06:17:53.632Z,15.20
2023-05-15T06:20:21.909Z,14.05
2023-05-15T06:22:49.426Z,13.05
2023-05-15T06:25:16.545Z,11.80
2023-05-15T06:27:43.954Z,13.43
2023-05-15T06:30:11.394Z,13.15
2023-05-15T06:32:38.603Z,11.63
2023-05-15T06:35:05.948Z,8.68
2023-05-15T06:37:33.045Z,12.30
2023-05-15T06:40:00.503Z,11.55
2023-05-15T06:42:27.578Z,10.18
2023-05-15T06:44:54.711Z,9.40
2023-05-15T06:47:21.888Z,8.75
2023-05-15T06:49:49.040Z,9.35
2023-05-15T06:52:16.166Z,11.05
2023-05-15T06:54:43.262Z,8.80
2023-05-15T06:57:10.432Z,10.23
2023-05-15T06:59:37.470Z,11.85
2023-05-15T07:02:04.777Z,10.70
2023-05-15T07:04:31.898Z,10.82
2023-05-15T07:06:59.003Z,9.88
2023-05-15T07:09:26.288Z,9.18
2023-05-15T07:11:53.476Z,8.35
2023-05-15T07:14:20.524Z,11.60
2023-05-15T07:16:47.691Z,10.05
2023-05-15T07:19:18.323Z,10.60
2023-05-15T07:21:45.428Z,9.55
2023-05-15T07:24:12.496Z,9.00
2023-05-15T07:26:50.305Z,11.13
2023-05-15T07:29:25.208Z,10.07
2023-05-15T07:31:52.330Z,8.52
2023-05-15T07:34:19.529Z,9.07
2023-05-15T07:36:46.674Z,8.43
2023-05-15T07:39:13.953Z,8.48
2023-05-15T07:41:41.086Z,9.23
2023-05-15T07:44:08.286Z,8.98
2023-05-15T07:46:35.803Z,8.63
2023-05-15T07:49:02.947Z,8.45
2023-05-15T07:51:30.037Z,8.93
2023-05-15T07:53:57.087Z,9.48
2023-05-15T07:56:24.295Z,10.95
2023-05-15T07:58:51.438Z,9.02
2023-05-15T08:01:18.582Z,7.35
2023-05-15T08:03:45.796Z,7.00
2023-05-15T08:06:12.986Z,7.80
2023-05-15T08:08:40.095Z,6.90
2023-05-15T08:11:07.163Z,10.05
2023-05-15T08:13:34.243Z,7.38
2023-05-15T08:16:01.424Z,8.27
2023-05-15T08:18:28.577Z,9.13
2023-05-15T08:20:55.917Z,8.15
2023-05-15T08:23:22.975Z,7.68
2023-05-15T08:25:50.018Z,8.05
2023-05-15T08:28:17.100Z,9.70
2023-05-15T08:30:44.202Z,9.05
2023-05-15T08:33:11.371Z,8.98
2023-05-15T08:35:38.580Z,10.07
2023-05-15T08:38:06.143Z,9.50
2023-05-15T08:40:38.933Z,8.02
2023-05-15T08:43:13.748Z,7.38
2023-05-15T08:45:41.527Z,9.48
2023-05-15T08:48:11.804Z,9.43
2023-05-15T08:50:40.179Z,10.07
2023-05-15T08:53:07.464Z,7.55
2023-05-15T08:55:34.591Z,9.57
2023-05-15T08:58:02.237Z,9.27
2023-05-15T09:00:29.753Z,7.70
2023-05-15T09:02:58.817Z,7.43
2023-05-15T09:05:26.810Z,9.70
2023-05-15T09:07:55.436Z,7.88
2023-05-15T09:10:22.798Z,7.38
2023-05-15T09:12:51.497Z,7.32
2023-05-15T09:15:22.455Z,7.97
2023-05-15T09:17:50.016Z,7.53
2023-05-15T09:20:30.662Z,8.65
2023-05-15T09:22:58.768Z,9.00
2023-05-15T09:25:42.578Z,8.98
2023-05-15T09:28:10.770Z,6.75
2023-05-15T09:30:42.832Z,7.85
2023-05-15T09:33:10.322Z,8.40
2023-05-15T09:35:38.578Z,6.80
2023-05-15T09:38:09.495Z,7.25
2023-05-15T09:40:36.962Z,7.38
2023-05-15T09:43:04.197Z,6.80
2023-05-15T09:45:31.437Z,8.68
2023-05-15T09:48:05.120Z,9.05
2023-05-15T09:50:34.163Z,8.23
2023-05-15T09:53:01.308Z,8.30
2023-05-15T09:55:28.588Z,8.52
2023-05-15T09:58:06.418Z,7.90
2023-05-15T10:00:34.275Z,8.10
2023-05-15T10:03:02.755Z,8.52
2023-05-15T10:05:42.648Z,7.13
2023-05-15T10:08:11.323Z,9.52
2023-05-15T10:10:38.785Z,8.02
2023-05-15T10:13:07.782Z,8.32
2023-05-15T10:15:35.334Z,8.68
2023-05-15T10:18:04.868Z,10.35
2023-05-15T10:20:32.504Z,9.05
2023-05-15T10:23:01.107Z,7.88
2023-05-15T10:25:28.914Z,9.25
2023-05-15T10:27:56.755Z,7.97
2023-05-15T10:30:24.306Z,8.02
2023-05-15T10:32:51.987Z,10.63
2023-05-15T10:35:19.240Z,10.05
2023-05-15T10:37:47.807Z,7.57
2023-05-15T10:40:16.023Z,8.75
2023-05-15T10:42:43.660Z,10.02
2023-05-15T10:45:11.227Z,10.15
2023-05-15T10:47:39.439Z,8.20
2023-05-15T10:50:06.882Z,9.52
2023-05-15T10:52:34.387Z,11.07
2023-05-15T10:55:01.623Z,11.02
2023-05-15T10:57:31.682Z,8.20
2023-05-15T10:59:59.298Z,10.30
2023-05-15T11:02:29.418Z,8.68
2023-05-15T11:05:00.394Z,8.70
2023-05-15T11:07:28.256Z,9.55
2023-05-15T11:09:56.382Z,9.80
2023-05-15T11:12:24.593Z,9.30
2023-05-15T11:14:57.709Z,11.15
2023-05-15T11:17:24.911Z,8.15
2023-05-15T11:19:52.034Z,7.18
2023-05-15T11:22:20.872Z,6.45
2023-05-15T11:24:52.048Z,5.78
2023-05-15T11:27:20.494Z,9.05
2023-05-15T11:30:06.584Z,8.18
2023-05-15T11:32:43.544Z,8.13
2023-05-15T11:35:14.025Z,7.95
2023-05-15T11:37:44.556Z,6.70
2023-05-15T11:40:30.787Z,7.28
2023-05-15T11:43:00.995Z,9.88
2023-05-15T11:45:38.387Z,7.03
2023-05-15T11:48:06.706Z,7.63
2023-05-15T11:50:35.436Z,8.10
2023-05-15T11:53:04.155Z,7.82
2023-05-15T11:55:32.361Z,12.18
2023-05-15T11:57:59.887Z,6.03
2023-05-15T12:00:27.229Z,8.35
2023-05-15T12:02:54.802Z,6.95
2023-05-15T12:05:22.162Z,6.28
2023-05-15T12:07:49.344Z,6.95
2023-05-15T12:10:16.544Z,7.55
2023-05-15T12:12:44.561Z,6.55
2023-05-15T12:15:12.328Z,7.47
2023-05-15T12:17:42.762Z,6.32
2023-05-15T12:20:17.794Z,6.07
2023-05-15T12:22:45.421Z,7.55
2023-05-15T12:25:13.287Z,6.53
2023-05-15T12:27:41.016Z,6.10
2023-05-15T12:30:08.690Z,6.20
2023-05-15T12:32:36.468Z,6.32
2023-05-15T12:35:03.954Z,5.70
2023-05-15T12:37:36.262Z,6.40
2023-05-15T12:40:12.102Z,5.28
2023-05-15T12:42:46.191Z,6.88
2023-05-15T12:45:14.425Z,9.25
2023-05-15T12:47:42.582Z,7.45
2023-05-15T12:50:23.152Z,7.15
2023-05-15T12:52:50.520Z,7.90
2023-05-15T12:55:18.151Z,7.82
2023-05-15T12:57:45.352Z,6.85
2023-05-15T13:00:13.617Z,5.75
2023-05-15T13:02:43.762Z,6.78
2023-05-15T13:05:11.299Z,7.55
2023-05-15T13:07:39.360Z,7.38
2023-05-15T13:10:07.378Z,4.18
2023-05-15T13:12:40.921Z,6.28
2023-05-15T13:15:08.339Z,7.15
2023-05-15T13:17:35.716Z,5.20
2023-05-15T13:20:03.299Z,4.68
2023-05-15T13:22:30.990Z,4.22
2023-05-15T13:24:58.331Z,5.45
2023-05-15T13:27:25.504Z,5.97
2023-05-15T13:29:52.610Z,5.15
2023-05-15T13:32:19.692Z,5.65
2023-05-15T13:34:46.782Z,11.13
2023-05-15T13:37:13.914Z,5.80
2023-05-15T13:39:40.953Z,6.93
2023-05-15T13:42:08.055Z,5.80
2023-05-15T13:44:37.504Z,7.32
2023-05-15T13:47:04.944Z,6.13
2023-05-15T13:49:32.157Z,7.80
2023-05-15T13:51:59.317Z,6.80
2023-05-15T13:54:26.520Z,6.55
2023-05-15T13:56:53.644Z,5.88
2023-05-15T13:59:21.076Z,6.10
2023-05-15T14:01:48.245Z,6.55
2023-05-15T14:04:15.673Z,6.68
2023-05-15T14:06:42.768Z,7.53
2023-05-15T14:09:09.889Z,7.82
2023-05-15T14:11:37.034Z,5.82
2023-05-15T14:14:04.199Z,7.03
2023-05-15T14:16:31.280Z,7.47
2023-05-15T14:18:58.689Z,7.43
2023-05-15T14:21:25.908Z,7.43
2023-05-15T14:23:53.169Z,8.18
2023-05-15T14:26:20.288Z,8.07
2023-05-15T14:28:47.424Z,7.93
2023-05-15T14:31:14.532Z,7.03
2023-05-15T14:33:41.886Z,6.60
2023-05-15T14:36:09.140Z,5.68
2023-05-15T14:38:38.508Z,5.60
2023-05-15T14:41:06.057Z,6.35
2023-05-15T14:43:33.141Z,8.68
2023-05-15T14:46:00.312Z,5.88
2023-05-15T14:48:27.507Z,6.65
2023-05-15T14:50:54.600Z,7.35
2023-05-15T14:53:21.714Z,7.53
2023-05-15T14:55:48.871Z,7.15
2023-05-15T14:58:16.076Z,7.88
2023-05-15T15:00:43.534Z,7.47
2023-05-15T15:03:11.312Z,7.82
2023-05-15T15:05:38.488Z,9.40
2023-05-15T15:08:05.617Z,8.65
2023-05-15T15:10:33.820Z,10.60
2023-05-15T15:13:01.036Z,11.02
2023-05-15T15:15:28.165Z,12.25
2023-05-15T15:17:57.284Z,17.90
2023-05-15T15:20:25.405Z,10.73
2023-05-15T15:22:53.056Z,8.93
2023-05-15T15:25:20.529Z,9.13
2023-05-15T15:27:48.140Z,9.70
2023-05-15T15:30:15.857Z,13.95
2023-05-15T15:32:44.077Z,8.50
2023-05-15T15:35:11.663Z,10.48
2023-05-15T15:37:39.020Z,9.45
2023-05-15T15:40:11.075Z,11.18
2023-05-15T15:42:38.423Z,11.18
2023-05-15T15:45:05.803Z,11.32
2023-05-15T15:47:32.981Z,10.27
2023-05-15T15:50:00.523Z,9.57
2023-05-15T15:52:27.887Z,11.13
2023-05-15T15:54:54.985Z,8.73
2023-05-15T15:57:22.589Z,10.80
2023-05-15T15:59:49.813Z,9.73
2023-05-15T16:02:17.520Z,9.68
2023-05-15T16:04:44.761Z,11.07
2023-05-15T16:07:11.836Z,11.23
2023-05-15T16:09:38.910Z,12.38
2023-05-15T16:12:06.223Z,10.95
2023-05-15T16:14:33.346Z,13.18
2023-05-15T16:17:02.682Z,12.48
2023-05-15T16:19:30.450Z,15.13
2023-05-15T16:21:57.554Z,15.70
2023-05-15T16:24:24.674Z,12.40
2023-05-15T16:26:51.865Z,12.68
2023-05-15T16:29:20.047Z,11.52
2023-05-15T16:31:48.216Z,13.38
2023-05-15T16:34:15.731Z,13.85
2023-05-15T16:36:43.487Z,14.88
2023-05-15T16:39:11.200Z,14.73
2023-05-15T16:41:38.417Z,13.98
2023-05-15T16:44:10.698Z,14.00
2023-05-15T16:46:38.202Z,15.10
2023-05-15T16:49:05.664Z,13.20
2023-05-15T16:51:32.819Z,10.80
2023-05-15T16:53:59.991Z,10.82
2023-05-15T16:56:27.175Z,10.63
2023-05-15T16:58:57.105Z,8.75
2023-05-15T17:01:24.278Z,11.23
2023-05-15T17:03:52.762Z,10.13
2023-05-15T17:06:20.145Z,10.48
2023-05-15T17:08:47.313Z,12.70
2023-05-15T17:11:14.573Z,10.52
2023-05-15T17:13:41.655Z,11.18
2023-05-15T17:16:08.994Z,10.38
2023-05-15T17:18:36.286Z,10.07
2023-05-15T17:21:03.726Z,12.38
2023-05-15T17:23:30.872Z,10.57
2023-05-15T17:25:58.078Z,11.70
2023-05-15T17:28:25.339Z,15.65
2023-05-15T17:30:52.412Z,11.57
2023-05-15T17:33:19.444Z,15.25
2023-05-15T17:35:46.677Z,14.07
2023-05-15T17:38:13.802Z,14.40
2023-05-15T17:40:41.117Z,14.95
2023-05-15T17:43:10.161Z,14.57
2023-05-15T17:45:37.340Z,13.65
2023-05-15T17:48:05.001Z,15.48
2023-05-15T17:50:32.365Z,12.50
2023-05-15T17:52:59.870Z,13.65
2023-05-15T17:55:27.246Z,14.20
2023-05-15T17:57:54.437Z,13.48
2023-05-15T18:00:21.593Z,12.32
2023-05-15T18:02:48.731Z,14.13
2023-05-15T18:05:16.030Z,11.63
2023-05-15T18:07:43.392Z,15.80
2023-05-15T18:10:10.550Z,15.18
2023-05-15T18:12:37.675Z,11.57
2023-05-15T18:15:04.951Z,10.77
2023-05-15T18:17:32.102Z,10.43
2023-05-15T18:19:59.307Z,12.57
2023-05-15T18:22:26.412Z,8.38
2023-05-15T18:24:53.556Z,10.70
2023-05-15T18:27:20.851Z,9.25
2023-05-15T18:29:47.982Z,7.18
2023-05-15T18:32:15.048Z,7.20
2023-05-15T18:34:42.205Z,8.60
2023-05-15T18:37:09.272Z,9.30
2023-05-15T18:39:38.206Z,9.38
2023-05-15T18:42:06.156Z,8.23
2023-05-15T18:44:34.842Z,6.80
2023-05-15T18:47:02.392Z,10.18
2023-05-15T18:49:29.726Z,11.05
2023-05-15T18:51:57.919Z,10.38
2023-05-15T18:54:25.093Z,12.40
2023-05-15T18:56:52.244Z,12.23
2023-05-15T18:59:19.957Z,13.90
2023-05-15T19:01:49.013Z,12.40
2023-05-15T19:04:16.229Z,11.57
2023-05-15T19:06:43.890Z,14.95
2023-05-15T19:09:11.032Z,17.23
2023-05-15T19:11:38.122Z,12.77
2023-05-15T19:14:05.382Z,10.20
2023-05-15T19:16:32.975Z,11.80
2023-05-15T19:19:00.298Z,11.90
2023-05-15T19:21:27.489Z,10.85
2023-05-15T19:23:54.677Z,8.35
2023-05-15T19:26:21.962Z,5.97
2023-05-15T19:28:49.244Z,6.05
2023-05-15T19:31:27.899Z,5.22
2023-05-15T19:33:58.753Z,4.22
2023-05-15T19:36:25.931Z,2.47
2023-05-15T19:38:53.128Z,2.85
2023-05-15T19:41:20.977Z,2.45
2023-05-15T19:43:50.512Z,4.15
2023-05-15T19:46:18.416Z,1.60
2023-05-15T19:48:46.067Z,1.73
2023-05-15T19:51:13.497Z,3.55
2023-05-15T19:53:41.378Z,2.03
2023-05-15T19:56:08.617Z,3.42
2023-05-15T19:58:35.807Z,1.90
2023-05-15T20:01:02.918Z,2.63
2023-05-15T20:03:33.287Z,4.25
2023-05-15T20:06:01.424Z,3.55
2023-05-15T20:08:28.945Z,3.67
2023-05-15T20:10:56.165Z,1.95
2023-05-15T20:13:23.758Z,3.83
2023-05-15T20:15:57.936Z,1.52
2023-05-15T20:18:31.456Z,2.60
2023-05-15T20:21:00.088Z,1.15
2023-05-15T20:23:27.237Z,1.45
2023-05-15T20:25:54.374Z,5.18
2023-05-15T20:28:24.879Z,0.82
2023-05-15T20:30:52.470Z,3.45
2023-05-15T20:33:19.806Z,2.17
2023-05-15T20:35:47.100Z,6.15
2023-05-15T20:38:14.518Z,3.85
2023-05-15T20:40:41.637Z,3.45
2023-05-15T20:43:08.779Z,3.28
2023-05-15T20:45:36.056Z,3.92
2023-05-15T20:48:03.331Z,2.42
2023-05-15T20:50:30.434Z,2.92
2023-05-15T20:52:57.633Z,5.30
2023-05-15T20:55:24.851Z,7.68
2023-05-15T20:57:52.034Z,1.27
2023-05-15T21:00:19.167Z,1.25
2023-05-15T21:02:46.909Z,3.55
2023-05-15T21:05:14.315Z,4.10
2023-05-15T21:07:41.534Z,2.63
2023-05-15T21:10:09.002Z,4.32
2023-05-15T21:12:36.161Z,4.25
2023-05-15T21:15:04.268Z,2.20
2023-05-15T21:17:31.320Z,5.07
2023-05-15T21:19:58.500Z,3.55
2023-05-15T21:22:25.691Z,2.92
2023-05-15T21:24:53.078Z,2.60
2023-05-15T21:27:20.162Z,5.57
2023-05-15T21:29:47.213Z,1.88
2023-05-15T21:32:14.278Z,2.67
2023-05-15T21:34:41.398Z,1.85
2023-05-15T21:37:08.491Z,4.30
2023-05-15T21:39:35.613Z,2.67
2023-05-15T21:42:02.753Z,3.83
2023-05-15T21:44:29.860Z,5.50
2023-05-15T21:46:57.009Z,6.65
2023-05-15T21:49:25.454Z,3.30
2023-05-15T21:51:52.542Z,3.60
2023-05-15T21:54:19.780Z,6.75
2023-05-15T21:56:46.843Z,2.85
2023-05-15T21:59:14.542Z,4.00
2023-05-15T22:01:41.766Z,5.72
2023-05-15T22:04:09.105Z,5.85
2023-05-15T22:06:36.226Z,7.43
2023-05-15T22:09:03.517Z,1.33
2023-05-15T22:11:30.828Z,12.18
2023-05-15T22:13:58.025Z,5.80
2023-05-15T22:16:25.110Z,5.35
2023-05-15T22:18:53.854Z,9.50
2023-05-15T22:21:21.203Z,4.00
2023-05-15T22:23:48.380Z,3.65
2023-05-15T22:26:15.475Z,5.07
2023-05-15T22:28:42.578Z,7.63
2023-05-15T22:31:09.746Z,6.00
2023-05-15T22:33:36.860Z,4.43
2023-05-15T22:36:04.030Z,5.25
2023-05-15T22:38:31.355Z,4.90
2023-05-15T22:40:58.506Z,4.50
2023-05-15T22:43:25.683Z,3.83
2023-05-15T22:45:52.831Z,5.50
2023-05-15T22:48:19.988Z,10.18
2023-05-15T22:50:47.564Z,7.63
2023-05-15T22:53:15.216Z,5.53
2023-05-15T22:55:42.658Z,5.10
2023-05-15T22:58:09.721Z,10.32
2023-05-15T23:00:36.832Z,4.20
2023-05-15T23:03:04.058Z,8.88
2023-05-15T23:05:31.215Z,12.98
2023-05-15T23:07:58.317Z,3.42
2023-05-15T23:10:25.752Z,7.07
2023-05-15T23:12:53.171Z,8.27
2023-05-15T23:15:20.314Z,12.10
2023-05-15T23:17:47.629Z,13.40
2023-05-15T23:20:15.534Z,8.30
2023-05-15T23:22:42.608Z,14.48
2023-05-15T23:25:09.895Z,12.18
2023-05-15T23:27:37.006Z,6.03
2023-05-15T23:30:04.412Z,7.15
2023-05-15T23:32:31.625Z,8.35
2023-05-15T23:34:59.369Z,21.90
2023-05-15T23:37:26.439Z,11.20
2023-05-15T23:39:56.508Z,4.60
2023-05-15T23:42:24.031Z,7.20
2023-05-15T23:44:51.194Z,6.78
2023-05-15T23:47:18.374Z,5.28
2023-05-15T23:49:45.602Z,10.13
2023-05-15T23:52:12.712Z,7.95
2023-05-15T23:54:40.246Z,10.27
2023-05-15T23:57:07.332Z,9.70
2023-05-15T23:59:34.455Z,10.93
